createdAt,value
2023-05-06T00:02:23.164Z,13.80
2023-05-06T00:04:51.207Z,10.90
2023-05-06T00:07:19.089Z,12.73
2023-05-06T00:09:49.001Z,12.80
2023-05-06T00:12:16.859Z,12.35
2023-05-06T00:14:44.622Z,12.32
2023-05-06T00:17:12.512Z,13.50
2023-05-06T00:19:40.409Z,15.10
2023-05-06T00:22:08.168Z,13.57
2023-05-06T00:24:35.916Z,14.55
2023-05-06T00:27:05.080Z,13.57
2023-05-06T00:29:32.802Z,16.23
2023-05-06T00:32:00.997Z,16.63
2023-05-06T00:34:29.009Z,15.50
2023-05-06T00:36:56.867Z,14.02
2023-05-06T00:39:25.335Z,15.32
2023-05-06T00:41:53.432Z,13.68
2023-05-06T00:44:22.513Z,14.43
2023-05-06T00:46:50.304Z,15.57
2023-05-06T00:49:18.094Z,17.90
2023-05-06T00:51:45.991Z,19.42
2023-05-06T00:54:14.275Z,18.05
2023-05-06T00:56:42.649Z,16.50
2023-05-06T00:59:10.599Z,15.15
2023-05-06T01:01:39.802Z,16.17
2023-05-06T01:04:08.685Z,17.33
2023-05-06T01:06:43.391Z,17.83
2023-05-06T01:09:18.037Z,17.27
2023-05-06T01:11:50.313Z,15.52
2023-05-06T01:14:26.998Z,15.25
2023-05-06T01:17:01.544Z,17.85
2023-05-06T01:19:41.716Z,17.13
2023-05-06T01:22:11.826Z,17.42
2023-05-06T01:24:42.333Z,17.85
2023-05-06T01:27:11.519Z,19.60
2023-05-06T01:29:41.358Z,18.70
2023-05-06T01:32:22.682Z,19.25
2023-05-06T01:34:57.672Z,16.92
2023-05-06T01:37:35.844Z,17.63
2023-05-06T01:40:07.696Z,16.75
2023-05-06T01:42:36.184Z,17.25
2023-05-06T01:45:08.166Z,19.40
2023-05-06T01:47:37.787Z,18.17
2023-05-06T01:50:07.718Z,18.08
2023-05-06T01:52:35.542Z,22.23
2023-05-06T01:55:03.332Z,22.15
2023-05-06T01:57:32.489Z,19.40
2023-05-06T02:00:00.300Z,19.05
2023-05-06T02:02:28.176Z,19.67
2023-05-06T02:04:55.989Z,17.13
2023-05-06T02:07:24.083Z,17.77
2023-05-06T02:09:51.833Z,23.73
2023-05-06T02:12:19.646Z,19.23
2023-05-06T02:14:48.815Z,20.38
2023-05-06T02:17:16.596Z,22.00
2023-05-06T02:19:44.384Z,17.35
2023-05-06T02:22:12.231Z,18.50
2023-05-06T02:24:40.025Z,30.75
2023-05-06T02:27:07.815Z,18.50
2023-05-06T02:29:35.625Z,21.38
2023-05-06T02:32:06.295Z,25.20
2023-05-06T02:34:34.155Z,15.70
2023-05-06T02:37:01.878Z,53.20
2023-05-06T02:39:29.856Z,49.08
2023-05-06T02:41:57.702Z,16.73
2023-05-06T02:44:25.518Z,41.03
2023-05-06T02:46:53.340Z,19.67
2023-05-06T02:49:22.690Z,24.35
2023-05-06T02:51:50.493Z,25.73
2023-05-06T02:54:18.283Z,15.93
2023-05-06T02:56:46.387Z,13.80
2023-05-06T02:59:14.793Z,24.38
2023-05-06T03:01:42.560Z,15.50
2023-05-06T03:04:10.618Z,17.00
2023-05-06T03:06:39.881Z,13.00
2023-05-06T03:09:08.569Z,15.52
2023-05-06T03:11:37.048Z,11.10
2023-05-06T03:14:06.467Z,37.28
2023-05-06T03:16:34.347Z,16.90
2023-05-06T03:19:03.704Z,11.75
2023-05-06T03:21:32.615Z,12.25
2023-05-06T03:24:01.921Z,9.93
2023-05-06T03:26:31.452Z,13.57
2023-05-06T03:29:00.073Z,11.23
2023-05-06T03:31:28.232Z,10.85
2023-05-06T03:33:56.953Z,18.30
2023-05-06T03:36:25.221Z,15.07
2023-05-06T03:38:55.176Z,17.05
2023-05-06T03:41:25.704Z,13.48
2023-05-06T03:43:55.521Z,12.40
2023-05-06T03:46:26.412Z,16.23
2023-05-06T03:48:54.653Z,25.55
2023-05-06T03:51:22.706Z,44.78
2023-05-06T03:53:52.908Z,29.05
2023-05-06T03:56:23.010Z,44.13
2023-05-06T03:58:54.821Z,41.42
2023-05-06T04:01:24.930Z,41.05
2023-05-06T04:03:54.414Z,54.33
2023-05-06T04:06:23.391Z,57.55
2023-05-06T04:08:51.222Z,93.28
2023-05-06T04:11:19.987Z,66.75
2023-05-06T04:13:49.187Z,41.05
2023-05-06T04:21:18.414Z,25.92
2023-05-06T04:23:52.673Z,88.00
2023-05-06T04:26:24.553Z,54.22
2023-05-06T04:28:52.403Z,23.33
2023-05-06T04:31:21.667Z,28.05
2023-05-06T04:33:53.443Z,36.10
2023-05-06T04:36:23.809Z,29.20
2023-05-06T04:39:11.314Z,25.48
2023-05-06T04:41:40.713Z,24.15
2023-05-06T04:44:09.486Z,42.53
2023-05-06T04:46:39.241Z,30.08
2023-05-06T04:49:07.507Z,27.17
2023-05-06T04:51:35.787Z,36.83
2023-05-06T04:54:04.773Z,38.05
2023-05-06T04:56:32.568Z,27.67
2023-05-06T04:59:00.315Z,31.85
2023-05-06T05:01:30.035Z,39.10
2023-05-06T05:03:59.197Z,31.02
2023-05-06T05:06:26.989Z,42.50
2023-05-06T05:08:55.503Z,45.13
2023-05-06T05:11:24.806Z,21.60
2023-05-06T05:13:56.046Z,35.67
2023-05-06T05:16:24.850Z,30.90
2023-05-06T05:18:53.838Z,37.08
2023-05-06T05:21:28.828Z,70.47
2023-05-06T05:23:57.934Z,36.58
2023-05-06T05:26:25.978Z,38.30
2023-05-06T05:28:55.138Z,29.15
2023-05-06T05:31:24.308Z,30.23
2023-05-06T05:33:52.682Z,30.02
2023-05-06T05:36:23.530Z,26.52
2023-05-06T05:38:55.788Z,29.20
2023-05-06T05:41:26.804Z,31.27
2023-05-06T05:43:55.711Z,29.75
2023-05-06T05:46:24.225Z,27.98
2023-05-06T05:48:52.638Z,29.45
2023-05-06T05:51:23.184Z,29.05
2023-05-06T05:53:52.268Z,29.92
2023-05-06T05:56:23.259Z,29.75
2023-05-06T05:58:51.180Z,30.23
2023-05-06T06:01:18.986Z,29.30
2023-05-06T06:03:48.164Z,30.40
2023-05-06T06:06:16.098Z,28.70
2023-05-06T06:08:44.388Z,31.33
2023-05-06T06:11:13.845Z,30.05
2023-05-06T06:13:43.967Z,32.47
2023-05-06T06:16:12.228Z,32.22
2023-05-06T06:18:39.998Z,29.10
2023-05-06T06:21:07.915Z,29.88
2023-05-06T06:23:36.384Z,29.10
2023-05-06T06:26:04.629Z,29.15
2023-05-06T06:28:34.013Z,32.22
2023-05-06T06:31:03.192Z,29.92
2023-05-06T06:33:30.950Z,33.17
2023-05-06T06:35:59.282Z,30.35
2023-05-06T06:38:27.038Z,31.80
2023-05-06T06:40:54.871Z,31.50
2023-05-06T06:43:23.812Z,34.75
2023-05-06T06:46:01.246Z,31.45
2023-05-06T06:48:30.391Z,29.45
2023-05-06T06:50:58.154Z,31.70
2023-05-06T06:53:25.923Z,31.70
2023-05-06T06:55:53.720Z,31.25
2023-05-06T06:58:21.467Z,30.48
2023-05-06T07:00:49.344Z,32.45
2023-05-06T07:03:19.376Z,28.27
2023-05-06T07:05:49.014Z,31.00
2023-05-06T07:08:17.654Z,36.13
2023-05-06T07:10:45.429Z,33.35
2023-05-06T07:13:13.231Z,31.05
2023-05-06T07:15:41.008Z,30.65
2023-05-06T07:18:08.801Z,30.77
2023-05-06T07:20:36.609Z,32.42
2023-05-06T07:23:05.778Z,32.15
2023-05-06T07:25:33.571Z,32.70
2023-05-06T07:28:01.315Z,30.92
2023-05-06T07:30:29.123Z,52.28
2023-05-06T07:32:56.934Z,29.95
2023-05-06T07:35:24.781Z,30.42
2023-05-06T07:37:52.530Z,28.83
2023-05-06T07:40:21.891Z,32.10
2023-05-06T07:42:49.652Z,30.75
2023-05-06T07:45:19.551Z,29.92
2023-05-06T07:47:47.486Z,28.92
2023-05-06T07:50:15.385Z,27.48
2023-05-06T07:52:43.291Z,27.77
2023-05-06T07:55:11.592Z,29.13
2023-05-06T07:57:40.947Z,27.77
2023-05-06T08:00:10.443Z,29.98
2023-05-06T08:02:44.338Z,29.58
2023-05-06T08:05:12.818Z,27.75
2023-05-06T08:07:42.117Z,29.30
2023-05-06T08:10:11.042Z,29.05
2023-05-06T08:12:38.993Z,29.42
2023-05-06T08:15:09.884Z,30.65
2023-05-06T08:17:38.070Z,30.73
2023-05-06T08:20:07.003Z,28.08
2023-05-06T08:22:34.832Z,30.00
2023-05-06T08:25:02.858Z,27.95
2023-05-06T08:27:30.780Z,26.55
2023-05-06T08:29:58.582Z,29.20
2023-05-06T08:32:27.760Z,28.98
2023-05-06T08:34:56.065Z,27.50
2023-05-06T08:37:23.897Z,28.73
2023-05-06T08:39:51.735Z,31.98
2023-05-06T08:42:19.536Z,28.20
2023-05-06T08:44:48.142Z,28.85
2023-05-06T08:47:15.960Z,31.00
2023-05-06T08:49:45.099Z,29.20
2023-05-06T08:52:13.191Z,31.20
2023-05-06T08:54:42.185Z,27.80
2023-05-06T08:57:13.183Z,26.98
2023-05-06T08:59:42.465Z,27.35
2023-05-06T09:02:11.238Z,24.25
2023-05-06T09:04:39.692Z,25.80
2023-05-06T09:07:09.460Z,25.65
2023-05-06T09:09:37.489Z,27.27
2023-05-06T09:12:07.063Z,27.08
2023-05-06T09:14:34.845Z,29.00
2023-05-06T09:17:03.151Z,28.73
2023-05-06T09:19:30.986Z,29.05
2023-05-06T09:22:00.144Z,27.58
2023-05-06T09:24:29.396Z,27.27
2023-05-06T09:26:57.453Z,24.13
2023-05-06T09:29:25.829Z,25.23
2023-05-06T09:31:54.930Z,26.67
2023-05-06T09:34:23.227Z,23.55
2023-05-06T09:36:53.286Z,23.73
2023-05-06T09:39:26.076Z,25.67
2023-05-06T09:41:55.706Z,27.08
2023-05-06T09:44:24.011Z,24.05
2023-05-06T09:46:51.862Z,22.88
2023-05-06T09:49:20.032Z,21.88
2023-05-06T09:51:51.682Z,24.63
2023-05-06T09:54:19.668Z,22.67
2023-05-06T09:56:48.907Z,22.25
2023-05-06T09:59:19.018Z,23.13
2023-05-06T10:01:47.425Z,23.92
2023-05-06T10:04:18.393Z,23.27
2023-05-06T10:06:49.342Z,24.17
2023-05-06T10:09:17.658Z,25.08
2023-05-06T10:11:48.468Z,23.83
2023-05-06T10:14:17.797Z,22.60
2023-05-06T10:16:45.840Z,21.02
2023-05-06T10:19:15.759Z,21.00
2023-05-06T10:21:49.334Z,21.92
2023-05-06T10:24:22.135Z,23.48
2023-05-06T10:26:52.495Z,21.55
2023-05-06T10:29:22.518Z,20.45
2023-05-06T10:31:55.671Z,22.77
2023-05-06T10:34:25.281Z,22.83
2023-05-06T10:36:57.769Z,21.50
2023-05-06T10:39:26.884Z,21.77
2023-05-06T10:41:54.745Z,19.88
2023-05-06T10:45:04.519Z,17.52
2023-05-06T10:48:11.024Z,16.17
2023-05-06T10:50:39.304Z,18.60
2023-05-06T10:53:07.079Z,18.88
2023-05-06T10:55:37.741Z,19.25
2023-05-06T10:58:14.845Z,18.83
2023-05-06T11:00:42.927Z,15.85
2023-05-06T11:03:14.155Z,17.02
2023-05-06T11:05:49.730Z,13.85
2023-05-06T11:08:23.775Z,11.88
2023-05-06T11:10:51.776Z,10.95
2023-05-06T11:13:22.188Z,12.32
2023-05-06T11:15:52.056Z,11.98
2023-05-06T11:18:43.696Z,10.60
2023-05-06T11:21:39.674Z,11.77
2023-05-06T11:24:11.948Z,13.13
2023-05-06T11:26:44.180Z,12.50
2023-05-06T11:29:12.146Z,13.55
2023-05-06T11:31:41.868Z,14.52
2023-05-06T11:34:13.928Z,14.68
2023-05-06T11:36:50.004Z,15.98
2023-05-06T11:39:17.892Z,14.70
2023-05-06T11:41:45.897Z,16.58
2023-05-06T11:44:25.957Z,15.13
2023-05-06T11:46:57.095Z,14.15
2023-05-06T11:49:27.906Z,14.88
2023-05-06T11:51:56.946Z,16.63
2023-05-06T11:54:27.052Z,13.95
2023-05-06T11:56:56.237Z,14.45
2023-05-06T11:59:32.755Z,13.45
2023-05-06T12:02:02.289Z,12.02
2023-05-06T12:04:38.579Z,13.32
2023-05-06T12:07:07.502Z,12.25
2023-05-06T12:09:37.067Z,10.85
2023-05-06T12:12:05.824Z,14.20
2023-05-06T12:14:33.980Z,13.35
2023-05-06T12:17:01.953Z,13.05
2023-05-06T12:19:31.819Z,13.93
2023-05-06T12:22:18.953Z,13.80
2023-05-06T12:24:46.728Z,14.05
2023-05-06T12:27:14.754Z,13.25
2023-05-06T12:29:53.321Z,16.98
2023-05-06T12:32:21.100Z,13.43
2023-05-06T12:34:50.229Z,12.88
2023-05-06T12:37:25.959Z,14.75
2023-05-06T12:39:54.710Z,11.35
2023-05-06T12:42:23.928Z,12.30
2023-05-06T12:44:51.661Z,12.02
2023-05-06T12:47:20.993Z,13.73
2023-05-06T12:49:51.979Z,14.77
2023-05-06T12:52:20.835Z,14.18
2023-05-06T12:54:49.477Z,14.73
2023-05-06T12:57:17.626Z,17.15
2023-05-06T12:59:46.559Z,16.27
2023-05-06T13:02:14.799Z,16.63
2023-05-06T13:04:42.729Z,15.02
2023-05-06T13:07:11.961Z,15.73
2023-05-06T13:09:39.768Z,16.17
2023-05-06T13:12:07.995Z,15.90
2023-05-06T13:14:38.463Z,17.08
2023-05-06T13:17:07.914Z,14.15
2023-05-06T13:19:36.105Z,16.83
2023-05-06T13:22:04.070Z,16.13
2023-05-06T13:24:33.359Z,14.18
2023-05-06T13:27:01.432Z,16.90
2023-05-06T13:29:30.354Z,15.68
2023-05-06T13:31:58.175Z,16.98
2023-05-06T13:34:26.075Z,14.75
2023-05-06T13:36:54.632Z,13.52
2023-05-06T13:39:22.678Z,12.85
2023-05-06T13:41:52.207Z,10.65
2023-05-06T13:44:21.140Z,13.05
2023-05-06T13:46:49.469Z,12.98
2023-05-06T13:49:18.023Z,14.10
2023-05-06T13:51:45.888Z,15.02
2023-05-06T13:54:13.641Z,10.73
2023-05-06T13:56:41.392Z,9.10
2023-05-06T13:59:11.812Z,8.25
2023-05-06T14:01:39.942Z,7.88
2023-05-06T14:04:07.845Z,9.02
2023-05-06T14:06:35.718Z,7.65
2023-05-06T14:09:04.654Z,7.20
2023-05-06T14:11:32.559Z,7.68
2023-05-06T14:14:00.344Z,8.05
2023-05-06T14:16:29.512Z,7.63
2023-05-06T14:18:57.313Z,7.65
2023-05-06T14:21:25.627Z,7.72
2023-05-06T14:23:53.419Z,6.60
2023-05-06T14:26:21.271Z,8.38
2023-05-06T14:28:49.040Z,7.63
2023-05-06T14:31:16.814Z,7.95
2023-05-06T14:33:45.912Z,7.97
2023-05-06T14:36:19.098Z,6.55
2023-05-06T14:38:46.962Z,7.22
2023-05-06T14:41:14.744Z,7.07
2023-05-06T14:43:42.551Z,6.40
2023-05-06T14:46:11.248Z,8.35
2023-05-06T14:48:39.140Z,7.30
2023-05-06T14:51:08.389Z,8.73
2023-05-06T14:53:36.272Z,6.78
2023-05-06T14:56:04.054Z,7.93
2023-05-06T14:58:31.883Z,7.15
2023-05-06T15:00:59.729Z,5.57
2023-05-06T15:03:27.606Z,7.30
2023-05-06T15:05:55.575Z,6.88
2023-05-06T15:08:24.818Z,5.65
2023-05-06T15:10:52.654Z,7.40
2023-05-06T15:13:20.530Z,6.25
2023-05-06T15:15:48.412Z,7.45
2023-05-06T15:18:16.236Z,7.28
2023-05-06T15:20:44.036Z,7.93
2023-05-06T15:23:11.790Z,7.75
2023-05-06T15:25:41.100Z,7.32
2023-05-06T15:28:09.164Z,7.30
2023-05-06T15:30:38.418Z,7.78
2023-05-06T15:33:06.410Z,6.97
2023-05-06T15:35:34.257Z,7.32
2023-05-06T15:38:04.061Z,7.38
2023-05-06T15:40:31.982Z,8.50
2023-05-06T15:43:01.175Z,7.78
2023-05-06T15:45:28.972Z,7.75
2023-05-06T15:47:56.836Z,9.05
2023-05-06T15:50:32.618Z,6.90
2023-05-06T15:53:02.092Z,7.00
2023-05-06T15:55:35.316Z,8.68
2023-05-06T15:58:10.631Z,7.20
2023-05-06T16:00:38.560Z,7.65
2023-05-06T16:03:09.881Z,6.85
2023-05-06T16:05:39.659Z,6.68
2023-05-06T16:08:07.522Z,6.53
2023-05-06T16:10:35.952Z,8.43
2023-05-06T16:13:03.887Z,7.10
2023-05-06T16:15:33.169Z,7.45
2023-05-06T16:18:00.958Z,6.75
2023-05-06T16:20:29.661Z,7.03
2023-05-06T16:22:57.444Z,7.20
2023-05-06T16:25:25.575Z,6.82
2023-05-06T16:27:53.505Z,6.28
2023-05-06T16:30:21.501Z,6.82
2023-05-06T16:32:50.979Z,6.47
2023-05-06T16:35:19.350Z,7.78
2023-05-06T16:37:47.152Z,7.55
2023-05-06T16:40:15.904Z,8.82
2023-05-06T16:42:43.642Z,8.90
2023-05-06T16:45:12.469Z,5.53
2023-05-06T16:47:41.290Z,6.28
2023-05-06T16:50:11.321Z,6.53
2023-05-06T16:52:39.286Z,7.10
2023-05-06T16:55:07.615Z,6.85
2023-05-06T16:57:35.487Z,6.20
2023-05-06T17:00:04.709Z,7.43
2023-05-06T17:02:32.634Z,7.22
2023-05-06T17:05:00.446Z,6.03
2023-05-06T17:07:29.655Z,6.78
2023-05-06T17:09:57.469Z,7.07
2023-05-06T17:12:26.793Z,7.13
2023-05-06T17:14:54.800Z,5.93
2023-05-06T17:17:24.771Z,5.95
2023-05-06T17:19:53.288Z,6.55
2023-05-06T17:22:21.634Z,5.53
2023-05-06T17:24:51.417Z,5.97
2023-05-06T17:27:19.456Z,6.47
2023-05-06T17:29:47.346Z,6.55
2023-05-06T17:32:15.135Z,7.32
2023-05-06T17:34:42.860Z,6.80
2023-05-06T17:37:10.670Z,7.70
2023-05-06T17:39:39.362Z,7.57
2023-05-06T17:42:08.532Z,5.70
2023-05-06T17:44:38.012Z,7.28
2023-05-06T17:47:05.915Z,6.38
2023-05-06T17:49:34.369Z,6.47
2023-05-06T17:52:02.234Z,6.82
2023-05-06T17:54:32.197Z,9.27
2023-05-06T17:57:00.881Z,6.43
2023-05-06T17:59:30.589Z,7.85
2023-05-06T18:01:58.469Z,6.22
2023-05-06T18:04:26.318Z,6.47
2023-05-06T18:06:54.106Z,7.57
2023-05-06T18:09:21.883Z,8.73
2023-05-06T18:11:49.683Z,7.57
2023-05-06T18:14:17.514Z,7.88
2023-05-06T18:16:46.633Z,10.40
2023-05-06T18:19:14.400Z,10.20
2023-05-06T18:21:42.171Z,10.77
2023-05-06T18:24:16.051Z,9.80
2023-05-06T18:26:45.805Z,9.90
2023-05-06T18:29:14.295Z,12.63
2023-05-06T18:31:42.298Z,11.00
2023-05-06T18:34:11.563Z,10.25
2023-05-06T18:36:39.434Z,10.77
2023-05-06T18:39:07.576Z,13.15
2023-05-06T18:41:35.406Z,11.85
2023-05-06T18:44:04.142Z,12.68
2023-05-06T18:46:32.062Z,11.90
2023-05-06T18:49:00.864Z,11.05
2023-05-06T18:51:30.146Z,12.75
2023-05-06T18:53:57.927Z,14.90
2023-05-06T18:56:25.741Z,15.63
2023-05-06T18:58:53.520Z,14.52
2023-05-06T19:01:21.339Z,14.63
2023-05-06T19:03:49.223Z,15.52
2023-05-06T19:06:17.037Z,12.35
2023-05-06T19:08:46.854Z,15.98
2023-05-06T19:11:15.605Z,14.77
2023-05-06T19:13:43.877Z,16.17
2023-05-06T19:16:11.681Z,15.00
2023-05-06T19:18:39.587Z,14.55
2023-05-06T19:21:09.898Z,14.35
2023-05-06T19:23:37.836Z,13.18
2023-05-06T19:26:09.877Z,18.08
2023-05-06T19:28:37.759Z,14.73
2023-05-06T19:31:07.652Z,14.68
2023-05-06T19:33:35.490Z,14.02
2023-05-06T19:36:03.369Z,14.77
2023-05-06T19:38:31.387Z,15.23
2023-05-06T19:40:59.164Z,14.18
2023-05-06T19:43:28.366Z,14.88
2023-05-06T19:45:56.270Z,16.95
2023-05-06T19:48:24.515Z,15.13
2023-05-06T19:50:53.880Z,14.73
2023-05-06T19:53:23.934Z,15.77
2023-05-06T19:55:52.020Z,15.80
2023-05-06T19:58:19.806Z,14.38
2023-05-06T20:00:49.536Z,15.85
2023-05-06T20:03:17.417Z,14.13
2023-05-06T20:05:45.332Z,18.13
2023-05-06T20:08:13.195Z,15.90
2023-05-06T20:10:40.966Z,15.82
2023-05-06T20:13:08.800Z,14.98
2023-05-06T20:15:36.888Z,16.40
2023-05-06T20:18:06.459Z,14.48
2023-05-06T20:20:35.930Z,15.95
2023-05-06T20:23:04.204Z,15.23
2023-05-06T20:25:32.136Z,16.10
2023-05-06T20:28:00.310Z,15.20
2023-05-06T20:30:28.228Z,16.75
2023-05-06T20:32:56.202Z,18.00
2023-05-06T20:35:25.657Z,16.83
2023-05-06T20:37:54.413Z,17.83
2023-05-06T20:40:22.340Z,15.63
2023-05-06T20:42:50.077Z,19.85
2023-05-06T20:45:18.118Z,18.23
2023-05-06T20:47:45.961Z,18.30
2023-05-06T20:50:17.058Z,21.75
2023-05-06T20:52:48.185Z,19.30
2023-05-06T20:55:16.130Z,17.88
2023-05-06T20:57:44.469Z,18.33
2023-05-06T21:00:13.302Z,16.25
2023-05-06T21:02:42.178Z,18.75
2023-05-06T21:05:11.048Z,18.65
2023-05-06T21:07:39.153Z,18.42
2023-05-06T21:10:08.849Z,16.77
2023-05-06T21:12:37.010Z,19.33
2023-05-06T21:15:05.786Z,16.90
2023-05-06T21:17:33.766Z,17.60
2023-05-06T21:20:03.531Z,16.20
2023-05-06T21:22:32.046Z,15.68
2023-05-06T21:24:59.819Z,18.30
2023-05-06T21:27:28.925Z,17.23
2023-05-06T21:29:56.750Z,16.67
2023-05-06T21:32:24.510Z,16.10
2023-05-06T21:34:52.317Z,16.02
2023-05-06T21:37:20.102Z,20.02
2023-05-06T21:39:47.830Z,19.80
2023-05-06T21:42:15.559Z,19.35
2023-05-06T21:44:44.686Z,17.65
2023-05-06T21:47:12.461Z,19.42
2023-05-06T21:49:40.368Z,17.90
2023-05-06T21:52:08.164Z,18.98
2023-05-06T21:54:35.903Z,20.30
2023-05-06T21:57:07.781Z,20.35
2023-05-06T21:59:36.236Z,19.83
2023-05-06T22:02:05.579Z,16.27
2023-05-06T22:04:33.449Z,21.63
2023-05-06T22:07:01.221Z,17.20
2023-05-06T22:09:28.959Z,15.60
2023-05-06T22:11:56.739Z,17.05
2023-05-06T22:14:30.305Z,17.58
2023-05-06T22:17:01.578Z,19.02
2023-05-06T22:19:30.824Z,16.98
2023-05-06T22:21:59.031Z,18.38
2023-05-06T22:24:28.122Z,19.15
2023-05-06T22:26:55.952Z,17.02
2023-05-06T22:29:23.715Z,17.35
2023-05-06T22:31:51.524Z,16.88
2023-05-06T22:34:19.385Z,16.83
2023-05-06T22:36:48.577Z,19.35
2023-05-06T22:39:16.323Z,16.77
2023-05-06T22:41:44.649Z,18.92
2023-05-06T22:44:13.728Z,16.40
2023-05-06T22:46:41.524Z,16.73
2023-05-06T22:49:09.608Z,18.10
2023-05-06T22:51:37.453Z,15.30
2023-05-06T22:54:06.678Z,16.95
2023-05-06T22:56:34.438Z,16.88
2023-05-06T22:59:02.213Z,17.33
2023-05-06T23:01:32.122Z,14.85
2023-05-06T23:04:00.516Z,16.13
2023-05-06T23:06:28.797Z,15.43
2023-05-06T23:08:56.541Z,16.58
2023-05-06T23:11:25.900Z,16.08
2023-05-06T23:13:53.697Z,16.08
2023-05-06T23:16:21.643Z,14.10
2023-05-06T23:18:49.388Z,14.43
2023-05-06T23:21:17.155Z,14.40
2023-05-06T23:23:44.879Z,13.88
2023-05-06T23:26:12.740Z,15.05
2023-05-06T23:28:41.890Z,13.77
2023-05-06T23:31:09.722Z,14.98
2023-05-06T23:33:37.512Z,13.68
2023-05-06T23:36:05.401Z,15.88
2023-05-06T23:38:33.201Z,13.82
2023-05-06T23:41:00.975Z,15.60
2023-05-06T23:43:28.744Z,14.70
2023-05-06T23:45:57.932Z,13.32
2023-05-06T23:48:25.803Z,12.52
2023-05-06T23:50:54.509Z,12.80
2023-05-06T23:53:22.648Z,13.40
2023-05-06T23:55:50.674Z,11.65
2023-05-06T23:58:18.414Z,14.10
